sensor_id;sensor_type;location;lat;lon;timestamp;P1;durP1;ratioP1;P2;durP2;ratioP2
56039;SDS011;43937;41.366;2.072;2023-06-04T00:02:09;6.70;;;4.20;;
56039;SDS011;43937;41.366;2.072;2023-06-04T00:04:35;12.38;;;5.20;;
56039;SDS011;43937;41.366;2.072;2023-06-04T00:07:00;7.63;;;5.20;;
56039;SDS011;43937;41.366;2.072;2023-06-04T00:09:26;5.95;;;3.95;;
56039;SDS011;43937;41.366;2.072;2023-06-04T00:11:51;5.60;;;3.83;;
56039;SDS011;43937;41.366;2.072;2023-06-04T00:14:17;4.97;;;3.95;;
56039;SDS011;43937;41.366;2.072;2023-06-04T00:16:42;7.45;;;4.82;;
56039;SDS011;43937;41.366;2.072;2023-06-04T00:19:08;6.15;;;4.32;;
56039;SDS011;43937;41.366;2.072;2023-06-04T00:21:33;6.90;;;4.30;;
56039;SDS011;43937;41.366;2.072;2023-06-04T00:24:00;6.30;;;4.35;;
56039;SDS011;43937;41.366;2.072;2023-06-04T00:26:26;12.45;;;5.35;;
56039;SDS011;43937;41.366;2.072;2023-06-04T00:28:54;6.85;;;4.65;;
56039;SDS011;43937;41.366;2.072;2023-06-04T00:31:20;7.78;;;4.82;;
56039;SDS011;43937;41.366;2.072;2023-06-04T00:33:46;6.47;;;3.97;;
56039;SDS011;43937;41.366;2.072;2023-06-04T00:36:15;8.05;;;4.10;;
56039;SDS011;43937;41.366;2.072;2023-06-04T00:38:41;7.00;;;4.25;;
56039;SDS011;43937;41.366;2.072;2023-06-04T00:41:07;9.38;;;4.40;;
56039;SDS011;43937;41.366;2.072;2023-06-04T00:43:32;7.75;;;4.32;;
56039;SDS011;43937;41.366;2.072;2023-06-04T00:45:58;6.72;;;4.82;;
56039;SDS011;43937;41.366;2.072;2023-06-04T00:48:24;7.78;;;3.95;;
56039;SDS011;43937;41.366;2.072;2023-06-04T00:50:52;8.93;;;4.57;;
56039;SDS011;43937;41.366;2.072;2023-06-04T00:53:19;4.70;;;4.10;;
56039;SDS011;43937;41.366;2.072;2023-06-04T00:55:46;6.15;;;4.70;;
56039;SDS011;43937;41.366;2.072;2023-06-04T00:58:11;7.68;;;4.28;;
56039;SDS011;43937;41.366;2.072;2023-06-04T01:00:38;7.13;;;4.30;;
56039;SDS011;43937;41.366;2.072;2023-06-04T01:03:06;4.97;;;4.25;;
56039;SDS011;43937;41.366;2.072;2023-06-04T01:08:10;6.78;;;4.30;;
56039;SDS011;43937;41.366;2.072;2023-06-04T01:10:36;8.43;;;5.30;;
56039;SDS011;43937;41.366;2.072;2023-06-04T01:13:01;8.23;;;4.97;;
56039;SDS011;43937;41.366;2.072;2023-06-04T01:15:27;12.60;;;6.00;;
56039;SDS011;43937;41.366;2.072;2023-06-04T01:17:54;6.45;;;4.15;;
56039;SDS011;43937;41.366;2.072;2023-06-04T01:23:05;9.20;;;4.82;;
56039;SDS011;43937;41.366;2.072;2023-06-04T01:25:59;10.20;;;5.47;;
56039;SDS011;43937;41.366;2.072;2023-06-04T01:28:28;5.07;;;3.95;;
56039;SDS011;43937;41.366;2.072;2023-06-04T01:32:06;10.50;;;4.93;;
56039;SDS011;43937;41.366;2.072;2023-06-04T01:34:42;10.70;;;5.55;;
56039;SDS011;43937;41.366;2.072;2023-06-04T01:37:09;5.93;;;4.07;;
56039;SDS011;43937;41.366;2.072;2023-06-04T01:39:36;6.97;;;5.10;;
56039;SDS011;43937;41.366;2.072;2023-06-04T01:42:02;7.95;;;4.80;;
56039;SDS011;43937;41.366;2.072;2023-06-04T01:44:27;8.38;;;5.70;;
56039;SDS011;43937;41.366;2.072;2023-06-04T01:46:53;7.93;;;5.35;;
56039;SDS011;43937;41.366;2.072;2023-06-04T01:49:18;12.15;;;5.43;;
56039;SDS011;43937;41.366;2.072;2023-06-04T01:51:43;11.48;;;6.30;;
56039;SDS011;43937;41.366;2.072;2023-06-04T01:54:09;7.20;;;5.18;;
56039;SDS011;43937;41.366;2.072;2023-06-04T01:56:34;7.15;;;5.07;;
56039;SDS011;43937;41.366;2.072;2023-06-04T01:59:00;6.95;;;4.97;;
56039;SDS011;43937;41.366;2.072;2023-06-04T02:01:26;12.18;;;5.03;;
56039;SDS011;43937;41.366;2.072;2023-06-04T02:03:51;6.22;;;4.72;;
56039;SDS011;43937;41.366;2.072;2023-06-04T02:06:17;10.32;;;4.65;;
56039;SDS011;43937;41.366;2.072;2023-06-04T02:08:43;7.93;;;4.90;;
56039;SDS011;43937;41.366;2.072;2023-06-04T02:11:08;7.75;;;5.40;;
56039;SDS011;43937;41.366;2.072;2023-06-04T02:13:34;6.32;;;4.30;;
56039;SDS011;43937;41.366;2.072;2023-06-04T02:16:00;11.15;;;5.20;;
56039;SDS011;43937;41.366;2.072;2023-06-04T02:18:26;9.82;;;5.78;;
56039;SDS011;43937;41.366;2.072;2023-06-04T02:20:51;6.80;;;5.13;;
56039;SDS011;43937;41.366;2.072;2023-06-04T02:23:18;7.80;;;4.63;;
56039;SDS011;43937;41.366;2.072;2023-06-04T02:25:44;6.65;;;5.35;;
56039;SDS011;43937;41.366;2.072;2023-06-04T02:28:11;7.57;;;5.38;;
56039;SDS011;43937;41.366;2.072;2023-06-04T02:30:36;7.57;;;5.53;;
56039;SDS011;43937;41.366;2.072;2023-06-04T02:33:02;19.70;;;5.85;;
56039;SDS011;43937;41.366;2.072;2023-06-04T02:35:29;10.07;;;5.70;;
56039;SDS011;43937;41.366;2.072;2023-06-04T02:37:55;22.58;;;6.03;;
56039;SDS011;43937;41.366;2.072;2023-06-04T02:40:27;7.18;;;5.13;;
56039;SDS011;43937;41.366;2.072;2023-06-04T02:42:53;10.65;;;5.70;;
56039;SDS011;43937;41.366;2.072;2023-06-04T02:45:20;7.07;;;5.00;;
56039;SDS011;43937;41.366;2.072;2023-06-04T02:47:45;8.02;;;5.22;;
56039;SDS011;43937;41.366;2.072;2023-06-04T02:50:12;9.60;;;6.45;;
56039;SDS011;43937;41.366;2.072;2023-06-04T02:52:38;6.93;;;5.38;;
56039;SDS011;43937;41.366;2.072;2023-06-04T02:55:05;6.28;;;4.68;;
56039;SDS011;43937;41.366;2.072;2023-06-04T02:57:32;7.10;;;5.50;;
56039;SDS011;43937;41.366;2.072;2023-06-04T02:59:58;8.98;;;5.95;;
56039;SDS011;43937;41.366;2.072;2023-06-04T03:02:24;11.57;;;6.63;;
56039;SDS011;43937;41.366;2.072;2023-06-04T03:04:50;10.10;;;6.55;;
56039;SDS011;43937;41.366;2.072;2023-06-04T03:07:16;9.25;;;6.60;;
56039;SDS011;43937;41.366;2.072;2023-06-04T03:09:49;11.13;;;6.68;;
56039;SDS011;43937;41.366;2.072;2023-06-04T03:12:15;12.60;;;6.57;;
56039;SDS011;43937;41.366;2.072;2023-06-04T03:14:40;7.93;;;5.78;;
56039;SDS011;43937;41.366;2.072;2023-06-04T03:17:06;10.77;;;6.75;;
56039;SDS011;43937;41.366;2.072;2023-06-04T03:19:36;8.68;;;5.63;;
56039;SDS011;43937;41.366;2.072;2023-06-04T03:22:02;6.95;;;5.78;;
56039;SDS011;43937;41.366;2.072;2023-06-04T03:24:31;12.82;;;5.50;;
56039;SDS011;43937;41.366;2.072;2023-06-04T03:27:01;8.85;;;5.97;;
56039;SDS011;43937;41.366;2.072;2023-06-04T03:29:28;8.43;;;5.25;;
56039;SDS011;43937;41.366;2.072;2023-06-04T03:31:53;12.10;;;6.20;;
56039;SDS011;43937;41.366;2.072;2023-06-04T03:34:19;11.05;;;6.10;;
56039;SDS011;43937;41.366;2.072;2023-06-04T03:36:44;7.80;;;5.60;;
56039;SDS011;43937;41.366;2.072;2023-06-04T03:39:09;9.60;;;6.25;;
56039;SDS011;43937;41.366;2.072;2023-06-04T03:41:35;10.50;;;6.38;;
56039;SDS011;43937;41.366;2.072;2023-06-04T03:44:01;9.45;;;6.32;;
56039;SDS011;43937;41.366;2.072;2023-06-04T03:46:26;6.85;;;5.03;;
56039;SDS011;43937;41.366;2.072;2023-06-04T03:48:54;8.18;;;6.18;;
56039;SDS011;43937;41.366;2.072;2023-06-04T03:51:19;11.02;;;6.82;;
56039;SDS011;43937;41.366;2.072;2023-06-04T03:53:45;9.85;;;6.28;;
56039;SDS011;43937;41.366;2.072;2023-06-04T03:56:10;10.50;;;6.18;;
56039;SDS011;43937;41.366;2.072;2023-06-04T03:58:36;13.23;;;5.47;;
56039;SDS011;43937;41.366;2.072;2023-06-04T04:01:01;12.80;;;6.45;;
56039;SDS011;43937;41.366;2.072;2023-06-04T04:03:29;9.73;;;6.80;;
56039;SDS011;43937;41.366;2.072;2023-06-04T04:05:56;8.75;;;6.13;;
56039;SDS011;43937;41.366;2.072;2023-06-04T04:08:22;9.00;;;5.80;;
56039;SDS011;43937;41.366;2.072;2023-06-04T04:10:48;6.75;;;5.53;;
56039;SDS011;43937;41.366;2.072;2023-06-04T04:13:13;9.38;;;6.65;;
56039;SDS011;43937;41.366;2.072;2023-06-04T04:15:39;16.17;;;6.95;;
56039;SDS011;43937;41.366;2.072;2023-06-04T04:18:05;11.57;;;6.70;;
56039;SDS011;43937;41.366;2.072;2023-06-04T04:20:33;7.18;;;5.47;;
56039;SDS011;43937;41.366;2.072;2023-06-04T04:22:58;10.65;;;7.00;;
56039;SDS011;43937;41.366;2.072;2023-06-04T04:26:01;12.18;;;7.03;;
56039;SDS011;43937;41.366;2.072;2023-06-04T04:28:27;13.93;;;7.22;;
56039;SDS011;43937;41.366;2.072;2023-06-04T04:30:54;9.02;;;6.43;;
56039;SDS011;43937;41.366;2.072;2023-06-04T04:33:21;10.68;;;6.15;;
56039;SDS011;43937;41.366;2.072;2023-06-04T04:35:49;13.98;;;6.90;;
56039;SDS011;43937;41.366;2.072;2023-06-04T04:38:15;10.68;;;6.70;;
56039;SDS011;43937;41.366;2.072;2023-06-04T04:40:42;10.10;;;6.75;;
56039;SDS011;43937;41.366;2.072;2023-06-04T04:43:07;9.40;;;6.75;;
56039;SDS011;43937;41.366;2.072;2023-06-04T04:45:33;11.63;;;6.28;;
56039;SDS011;43937;41.366;2.072;2023-06-04T04:47:58;10.88;;;7.03;;
56039;SDS011;43937;41.366;2.072;2023-06-04T04:50:24;12.00;;;7.40;;
56039;SDS011;43937;41.366;2.072;2023-06-04T04:52:49;10.95;;;7.57;;
56039;SDS011;43937;41.366;2.072;2023-06-04T04:55:15;15.43;;;7.60;;
56039;SDS011;43937;41.366;2.072;2023-06-04T04:57:56;10.55;;;7.13;;
56039;SDS011;43937;41.366;2.072;2023-06-04T05:00:21;10.40;;;6.90;;
56039;SDS011;43937;41.366;2.072;2023-06-04T05:02:47;8.77;;;6.70;;
56039;SDS011;43937;41.366;2.072;2023-06-04T05:05:12;10.90;;;7.50;;
56039;SDS011;43937;41.366;2.072;2023-06-04T05:08:11;10.13;;;6.97;;
56039;SDS011;43937;41.366;2.072;2023-06-04T05:10:37;12.02;;;7.18;;
56039;SDS011;43937;41.366;2.072;2023-06-04T05:13:02;11.13;;;7.03;;
56039;SDS011;43937;41.366;2.072;2023-06-04T05:15:29;11.52;;;7.28;;
56039;SDS011;43937;41.366;2.072;2023-06-04T05:17:55;14.77;;;7.15;;
56039;SDS011;43937;41.366;2.072;2023-06-04T05:20:21;12.27;;;6.63;;
56039;SDS011;43937;41.366;2.072;2023-06-04T05:22:47;12.80;;;6.75;;
56039;SDS011;43937;41.366;2.072;2023-06-04T05:25:13;9.45;;;6.05;;
56039;SDS011;43937;41.366;2.072;2023-06-04T05:27:39;18.10;;;6.70;;
56039;SDS011;43937;41.366;2.072;2023-06-04T05:30:05;8.07;;;5.85;;
56039;SDS011;43937;41.366;2.072;2023-06-04T05:32:31;9.60;;;5.60;;
56039;SDS011;43937;41.366;2.072;2023-06-04T05:34:57;11.98;;;5.82;;
56039;SDS011;43937;41.366;2.072;2023-06-04T05:37:24;8.65;;;6.45;;
56039;SDS011;43937;41.366;2.072;2023-06-04T05:39:52;9.10;;;6.95;;
56039;SDS011;43937;41.366;2.072;2023-06-04T05:42:18;7.65;;;5.60;;
56039;SDS011;43937;41.366;2.072;2023-06-04T05:44:44;8.43;;;5.93;;
56039;SDS011;43937;41.366;2.072;2023-06-04T05:47:10;9.20;;;5.68;;
56039;SDS011;43937;41.366;2.072;2023-06-04T05:49:36;11.43;;;5.68;;
56039;SDS011;43937;41.366;2.072;2023-06-04T05:52:01;7.30;;;5.32;;
56039;SDS011;43937;41.366;2.072;2023-06-04T05:54:28;6.68;;;4.47;;
56039;SDS011;43937;41.366;2.072;2023-06-04T05:56:54;10.40;;;5.38;;
56039;SDS011;43937;41.366;2.072;2023-06-04T06:00:24;8.25;;;4.82;;
56039;SDS011;43937;41.366;2.072;2023-06-04T06:02:50;6.07;;;4.85;;
56039;SDS011;43937;41.366;2.072;2023-06-04T06:05:17;6.63;;;4.45;;
56039;SDS011;43937;41.366;2.072;2023-06-04T06:07:43;6.07;;;4.45;;
56039;SDS011;43937;41.366;2.072;2023-06-04T06:10:09;6.55;;;5.03;;
56039;SDS011;43937;41.366;2.072;2023-06-04T06:12:35;7.80;;;5.22;;
56039;SDS011;43937;41.366;2.072;2023-06-04T06:15:00;5.78;;;4.50;;
56039;SDS011;43937;41.366;2.072;2023-06-04T06:17:26;6.63;;;4.22;;
56039;SDS011;43937;41.366;2.072;2023-06-04T06:19:52;9.10;;;4.78;;
56039;SDS011;43937;41.366;2.072;2023-06-04T06:22:17;7.00;;;4.55;;
56039;SDS011;43937;41.366;2.072;2023-06-04T06:26:22;7.70;;;4.85;;
56039;SDS011;43937;41.366;2.072;2023-06-04T06:28:47;6.65;;;4.68;;
56039;SDS011;43937;41.366;2.072;2023-06-04T06:31:13;6.63;;;4.25;;
56039;SDS011;43937;41.366;2.072;2023-06-04T06:33:38;9.20;;;4.70;;
56039;SDS011;43937;41.366;2.072;2023-06-04T06:36:07;6.57;;;4.47;;
56039;SDS011;43937;41.366;2.072;2023-06-04T06:38:34;4.50;;;3.50;;
56039;SDS011;43937;41.366;2.072;2023-06-04T06:41:00;5.63;;;4.28;;
56039;SDS011;43937;41.366;2.072;2023-06-04T06:43:25;5.35;;;3.35;;
56039;SDS011;43937;41.366;2.072;2023-06-04T06:45:51;5.10;;;3.80;;
56039;SDS011;43937;41.366;2.072;2023-06-04T06:48:16;7.22;;;3.67;;
56039;SDS011;43937;41.366;2.072;2023-06-04T06:50:42;5.78;;;4.03;;
56039;SDS011;43937;41.366;2.072;2023-06-04T06:53:07;5.75;;;4.07;;
56039;SDS011;43937;41.366;2.072;2023-06-04T06:55:33;4.88;;;3.75;;
56039;SDS011;43937;41.366;2.072;2023-06-04T06:57:58;5.57;;;3.10;;
56039;SDS011;43937;41.366;2.072;2023-06-04T07:00:23;7.88;;;3.58;;
56039;SDS011;43937;41.366;2.072;2023-06-04T07:02:50;5.55;;;4.25;;
56039;SDS011;43937;41.366;2.072;2023-06-04T07:05:16;6.38;;;3.92;;
56039;SDS011;43937;41.366;2.072;2023-06-04T07:07:42;4.72;;;3.75;;
56039;SDS011;43937;41.366;2.072;2023-06-04T07:10:08;5.78;;;4.22;;
56039;SDS011;43937;41.366;2.072;2023-06-04T07:12:34;3.65;;;3.28;;
56039;SDS011;43937;41.366;2.072;2023-06-04T07:15:00;8.50;;;3.97;;
56039;SDS011;43937;41.366;2.072;2023-06-04T07:17:26;5.25;;;3.50;;
56039;SDS011;43937;41.366;2.072;2023-06-04T07:19:51;5.97;;;3.90;;
56039;SDS011;43937;41.366;2.072;2023-06-04T07:22:16;5.35;;;3.75;;
56039;SDS011;43937;41.366;2.072;2023-06-04T07:24:42;10.75;;;3.97;;
56039;SDS011;43937;41.366;2.072;2023-06-04T07:27:14;5.70;;;4.05;;
56039;SDS011;43937;41.366;2.072;2023-06-04T07:29:42;6.03;;;3.88;;
56039;SDS011;43937;41.366;2.072;2023-06-04T07:32:08;6.35;;;3.80;;
56039;SDS011;43937;41.366;2.072;2023-06-04T07:34:34;4.00;;;3.13;;
56039;SDS011;43937;41.366;2.072;2023-06-04T07:37:02;6.07;;;3.88;;
56039;SDS011;43937;41.366;2.072;2023-06-04T07:39:30;5.53;;;3.60;;
56039;SDS011;43937;41.366;2.072;2023-06-04T07:41:56;4.30;;;3.38;;
56039;SDS011;43937;41.366;2.072;2023-06-04T07:44:21;4.60;;;2.88;;
56039;SDS011;43937;41.366;2.072;2023-06-04T07:46:47;5.45;;;3.13;;
56039;SDS011;43937;41.366;2.072;2023-06-04T07:49:13;7.07;;;3.72;;
56039;SDS011;43937;41.366;2.072;2023-06-04T07:51:39;6.47;;;3.33;;
56039;SDS011;43937;41.366;2.072;2023-06-04T07:54:04;4.82;;;3.75;;
56039;SDS011;43937;41.366;2.072;2023-06-04T07:56:30;3.83;;;3.08;;
56039;SDS011;43937;41.366;2.072;2023-06-04T07:58:55;4.03;;;2.70;;
56039;SDS011;43937;41.366;2.072;2023-06-04T08:01:21;6.32;;;4.28;;
56039;SDS011;43937;41.366;2.072;2023-06-04T08:03:49;6.40;;;4.72;;
56039;SDS011;43937;41.366;2.072;2023-06-04T08:06:15;4.40;;;3.97;;
56039;SDS011;43937;41.366;2.072;2023-06-04T08:08:43;5.70;;;4.00;;
56039;SDS011;43937;41.366;2.072;2023-06-04T08:11:11;8.43;;;4.75;;
56039;SDS011;43937;41.366;2.072;2023-06-04T08:13:37;6.10;;;4.45;;
56039;SDS011;43937;41.366;2.072;2023-06-04T08:16:02;9.38;;;4.82;;
56039;SDS011;43937;41.366;2.072;2023-06-04T08:18:28;9.57;;;5.65;;
56039;SDS011;43937;41.366;2.072;2023-06-04T08:20:54;10.38;;;7.13;;
56039;SDS011;43937;41.366;2.072;2023-06-04T08:23:19;9.32;;;7.25;;
56039;SDS011;43937;41.366;2.072;2023-06-04T08:25:45;11.82;;;6.90;;
56039;SDS011;43937;41.366;2.072;2023-06-04T08:28:12;9.88;;;7.13;;
56039;SDS011;43937;41.366;2.072;2023-06-04T08:30:38;10.73;;;6.95;;
56039;SDS011;43937;41.366;2.072;2023-06-04T08:33:04;11.60;;;7.70;;
56039;SDS011;43937;41.366;2.072;2023-06-04T08:35:30;7.93;;;5.35;;
56039;SDS011;43937;41.366;2.072;2023-06-04T08:37:55;8.00;;;5.45;;
56039;SDS011;43937;41.366;2.072;2023-06-04T08:40:21;7.63;;;6.07;;
56039;SDS011;43937;41.366;2.072;2023-06-04T08:42:47;8.23;;;5.28;;
56039;SDS011;43937;41.366;2.072;2023-06-04T08:45:13;6.82;;;5.32;;
56039;SDS011;43937;41.366;2.072;2023-06-04T08:47:43;7.13;;;5.30;;
56039;SDS011;43937;41.366;2.072;2023-06-04T08:50:10;8.00;;;5.65;;
56039;SDS011;43937;41.366;2.072;2023-06-04T08:52:37;7.20;;;5.43;;
56039;SDS011;43937;41.366;2.072;2023-06-04T08:55:04;8.15;;;5.80;;
56039;SDS011;43937;41.366;2.072;2023-06-04T08:57:31;7.10;;;5.07;;
56039;SDS011;43937;41.366;2.072;2023-06-04T08:59:56;8.60;;;4.43;;
56039;SDS011;43937;41.366;2.072;2023-06-04T09:05:02;8.05;;;5.03;;
56039;SDS011;43937;41.366;2.072;2023-06-04T09:07:29;16.77;;;4.78;;
56039;SDS011;43937;41.366;2.072;2023-06-04T09:09:56;7.25;;;4.88;;
56039;SDS011;43937;41.366;2.072;2023-06-04T09:12:23;10.20;;;4.70;;
56039;SDS011;43937;41.366;2.072;2023-06-04T09:14:53;8.07;;;5.20;;
56039;SDS011;43937;41.366;2.072;2023-06-04T09:17:22;8.73;;;5.85;;
56039;SDS011;43937;41.366;2.072;2023-06-04T09:19:49;5.90;;;4.85;;
56039;SDS011;43937;41.366;2.072;2023-06-04T09:22:15;7.45;;;4.80;;
56039;SDS011;43937;41.366;2.072;2023-06-04T09:24:41;6.07;;;3.92;;
56039;SDS011;43937;41.366;2.072;2023-06-04T09:27:11;5.78;;;4.47;;
56039;SDS011;43937;41.366;2.072;2023-06-04T09:29:53;6.03;;;4.20;;
56039;SDS011;43937;41.366;2.072;2023-06-04T09:32:27;6.78;;;4.57;;
56039;SDS011;43937;41.366;2.072;2023-06-04T09:34:55;10.75;;;4.22;;
56039;SDS011;43937;41.366;2.072;2023-06-04T09:37:22;11.85;;;4.57;;
56039;SDS011;43937;41.366;2.072;2023-06-04T09:39:57;5.68;;;4.00;;
56039;SDS011;43937;41.366;2.072;2023-06-04T09:42:22;5.28;;;3.40;;
56039;SDS011;43937;41.366;2.072;2023-06-04T09:44:48;5.20;;;3.40;;
56039;SDS011;43937;41.366;2.072;2023-06-04T09:47:14;4.13;;;3.13;;
56039;SDS011;43937;41.366;2.072;2023-06-04T09:49:44;4.50;;;2.67;;
56039;SDS011;43937;41.366;2.072;2023-06-04T09:52:10;2.90;;;2.45;;
56039;SDS011;43937;41.366;2.072;2023-06-04T09:54:37;6.05;;;3.30;;
56039;SDS011;43937;41.366;2.072;2023-06-04T09:57:05;2.97;;;2.17;;
56039;SDS011;43937;41.366;2.072;2023-06-04T09:59:49;2.15;;;1.95;;
56039;SDS011;43937;41.366;2.072;2023-06-04T10:02:21;5.28;;;2.47;;
56039;SDS011;43937;41.366;2.072;2023-06-04T10:04:53;2.92;;;2.13;;
56039;SDS011;43937;41.366;2.072;2023-06-04T10:07:22;3.10;;;2.30;;
56039;SDS011;43937;41.366;2.072;2023-06-04T10:09:49;4.85;;;2.30;;
56039;SDS011;43937;41.366;2.072;2023-06-04T10:12:16;3.30;;;2.08;;
56039;SDS011;43937;41.366;2.072;2023-06-04T10:14:53;5.07;;;2.45;;
56039;SDS011;43937;41.366;2.072;2023-06-04T10:17:24;3.72;;;2.60;;
56039;SDS011;43937;41.366;2.072;2023-06-04T10:19:53;4.70;;;2.65;;
56039;SDS011;43937;41.366;2.072;2023-06-04T10:22:19;3.05;;;2.50;;
56039;SDS011;43937;41.366;2.072;2023-06-04T10:24:45;2.95;;;2.22;;
56039;SDS011;43937;41.366;2.072;2023-06-04T10:27:12;3.00;;;2.42;;
56039;SDS011;43937;41.366;2.072;2023-06-04T10:29:38;2.38;;;2.17;;
56039;SDS011;43937;41.366;2.072;2023-06-04T10:34:14;4.90;;;2.20;;
56039;SDS011;43937;41.366;2.072;2023-06-04T10:36:43;2.83;;;2.00;;
56039;SDS011;43937;41.366;2.072;2023-06-04T10:39:10;3.53;;;2.38;;
56039;SDS011;43937;41.366;2.072;2023-06-04T10:41:36;3.03;;;2.38;;
56039;SDS011;43937;41.366;2.072;2023-06-04T10:46:11;7.55;;;2.15;;
56039;SDS011;43937;41.366;2.072;2023-06-04T10:48:49;1.70;;;1.60;;
56039;SDS011;43937;41.366;2.072;2023-06-04T10:51:16;3.28;;;2.10;;
56039;SDS011;43937;41.366;2.072;2023-06-04T10:53:54;6.45;;;2.00;;
56039;SDS011;43937;41.366;2.072;2023-06-04T10:56:27;3.70;;;2.33;;
56039;SDS011;43937;41.366;2.072;2023-06-04T10:58:53;3.80;;;2.22;;
56039;SDS011;43937;41.366;2.072;2023-06-04T11:01:25;2.47;;;2.28;;
56039;SDS011;43937;41.366;2.072;2023-06-04T11:03:53;4.13;;;2.45;;
56039;SDS011;43937;41.366;2.072;2023-06-04T11:06:20;3.75;;;2.58;;
56039;SDS011;43937;41.366;2.072;2023-06-04T11:09:03;3.20;;;2.60;;
56039;SDS011;43937;41.366;2.072;2023-06-04T11:11:29;3.03;;;2.20;;
56039;SDS011;43937;41.366;2.072;2023-06-04T11:13:55;2.55;;;2.30;;
56039;SDS011;43937;41.366;2.072;2023-06-04T11:16:20;8.38;;;2.85;;
56039;SDS011;43937;41.366;2.072;2023-06-04T11:18:55;4.15;;;2.10;;
56039;SDS011;43937;41.366;2.072;2023-06-04T11:21:22;2.10;;;1.75;;
56039;SDS011;43937;41.366;2.072;2023-06-04T11:23:48;5.40;;;2.53;;
56039;SDS011;43937;41.366;2.072;2023-06-04T11:27:14;3.33;;;2.30;;
56039;SDS011;43937;41.366;2.072;2023-06-04T11:29:40;3.53;;;2.38;;
56039;SDS011;43937;41.366;2.072;2023-06-04T11:32:06;3.92;;;2.60;;
56039;SDS011;43937;41.366;2.072;2023-06-04T11:34:31;4.47;;;2.70;;
56039;SDS011;43937;41.366;2.072;2023-06-04T11:37:07;6.35;;;2.25;;
56039;SDS011;43937;41.366;2.072;2023-06-04T11:39:34;2.78;;;2.22;;
56039;SDS011;43937;41.366;2.072;2023-06-04T11:42:06;2.25;;;1.95;;
56039;SDS011;43937;41.366;2.072;2023-06-04T11:44:32;4.40;;;1.88;;
56039;SDS011;43937;41.366;2.072;2023-06-04T11:46:58;3.88;;;2.42;;
56039;SDS011;43937;41.366;2.072;2023-06-04T11:49:24;2.53;;;2.22;;
56039;SDS011;43937;41.366;2.072;2023-06-04T11:51:52;3.70;;;2.15;;
56039;SDS011;43937;41.366;2.072;2023-06-04T11:54:19;3.03;;;2.10;;
56039;SDS011;43937;41.366;2.072;2023-06-04T11:57:27;2.78;;;2.15;;
56039;SDS011;43937;41.366;2.072;2023-06-04T11:59:53;5.65;;;1.80;;
56039;SDS011;43937;41.366;2.072;2023-06-04T12:02:19;2.58;;;1.73;;
56039;SDS011;43937;41.366;2.072;2023-06-04T12:04:45;2.38;;;1.70;;
56039;SDS011;43937;41.366;2.072;2023-06-04T12:07:10;3.20;;;2.33;;
56039;SDS011;43937;41.366;2.072;2023-06-04T12:09:36;5.50;;;2.50;;
56039;SDS011;43937;41.366;2.072;2023-06-04T12:12:06;3.20;;;2.90;;
56039;SDS011;43937;41.366;2.072;2023-06-04T12:14:32;5.22;;;3.20;;
56039;SDS011;43937;41.366;2.072;2023-06-04T12:16:59;12.80;;;2.40;;
56039;SDS011;43937;41.366;2.072;2023-06-04T12:19:26;4.45;;;2.83;;
56039;SDS011;43937;41.366;2.072;2023-06-04T12:22:05;3.72;;;2.42;;
56039;SDS011;43937;41.366;2.072;2023-06-04T12:26:34;3.08;;;1.90;;
56039;SDS011;43937;41.366;2.072;2023-06-04T12:29:11;2.87;;;1.90;;
56039;SDS011;43937;41.366;2.072;2023-06-04T12:31:42;5.20;;;2.47;;
56039;SDS011;43937;41.366;2.072;2023-06-04T12:34:14;3.20;;;2.53;;
56039;SDS011;43937;41.366;2.072;2023-06-04T12:36:40;2.10;;;1.60;;
56039;SDS011;43937;41.366;2.072;2023-06-04T12:39:06;3.25;;;2.08;;
56039;SDS011;43937;41.366;2.072;2023-06-04T12:41:32;5.80;;;2.55;;
56039;SDS011;43937;41.366;2.072;2023-06-04T12:44:01;3.97;;;1.90;;
56039;SDS011;43937;41.366;2.072;2023-06-04T12:46:26;1.90;;;1.70;;
56039;SDS011;43937;41.366;2.072;2023-06-04T12:48:53;3.78;;;1.95;;
56039;SDS011;43937;41.366;2.072;2023-06-04T12:51:19;3.38;;;2.03;;
56039;SDS011;43937;41.366;2.072;2023-06-04T12:53:46;2.00;;;1.80;;
56039;SDS011;43937;41.366;2.072;2023-06-04T12:56:12;4.00;;;1.92;;
56039;SDS011;43937;41.366;2.072;2023-06-04T12:58:37;3.95;;;1.90;;
56039;SDS011;43937;41.366;2.072;2023-06-04T13:01:03;11.60;;;2.30;;
56039;SDS011;43937;41.366;2.072;2023-06-04T13:03:32;25.35;;;2.03;;
56039;SDS011;43937;41.366;2.072;2023-06-04T13:05:58;5.15;;;2.55;;
56039;SDS011;43937;41.366;2.072;2023-06-04T13:08:41;3.17;;;2.58;;
56039;SDS011;43937;41.366;2.072;2023-06-04T13:11:06;8.68;;;2.40;;
56039;SDS011;43937;41.366;2.072;2023-06-04T13:13:33;4.05;;;2.63;;
56039;SDS011;43937;41.366;2.072;2023-06-04T13:15:58;4.50;;;2.50;;
56039;SDS011;43937;41.366;2.072;2023-06-04T13:18:24;3.65;;;2.45;;
56039;SDS011;43937;41.366;2.072;2023-06-04T13:20:49;2.60;;;2.30;;
56039;SDS011;43937;41.366;2.072;2023-06-04T13:23:15;5.03;;;2.00;;
56039;SDS011;43937;41.366;2.072;2023-06-04T13:25:41;7.60;;;2.60;;
56039;SDS011;43937;41.366;2.072;2023-06-04T13:28:06;2.72;;;1.92;;
56039;SDS011;43937;41.366;2.072;2023-06-04T13:30:41;3.97;;;2.55;;
56039;SDS011;43937;41.366;2.072;2023-06-04T13:33:06;2.55;;;1.65;;
56039;SDS011;43937;41.366;2.072;2023-06-04T13:35:32;3.67;;;2.28;;
56039;SDS011;43937;41.366;2.072;2023-06-04T13:37:58;2.70;;;1.80;;
56039;SDS011;43937;41.366;2.072;2023-06-04T13:40:23;2.22;;;1.83;;
56039;SDS011;43937;41.366;2.072;2023-06-04T13:42:49;4.40;;;2.28;;
56039;SDS011;43937;41.366;2.072;2023-06-04T13:45:14;5.63;;;2.53;;
56039;SDS011;43937;41.366;2.072;2023-06-04T13:47:42;3.47;;;2.65;;
56039;SDS011;43937;41.366;2.072;2023-06-04T13:50:07;5.40;;;2.65;;
56039;SDS011;43937;41.366;2.072;2023-06-04T13:52:33;4.15;;;2.42;;
56039;SDS011;43937;41.366;2.072;2023-06-04T13:54:59;6.32;;;2.25;;
56039;SDS011;43937;41.366;2.072;2023-06-04T13:59:13;2.80;;;1.98;;
56039;SDS011;43937;41.366;2.072;2023-06-04T14:01:39;3.47;;;2.30;;
56039;SDS011;43937;41.366;2.072;2023-06-04T14:04:05;1.50;;;1.40;;
56039;SDS011;43937;41.366;2.072;2023-06-04T14:06:31;3.75;;;1.80;;
56039;SDS011;43937;41.366;2.072;2023-06-04T14:08:58;3.45;;;2.25;;
56039;SDS011;43937;41.366;2.072;2023-06-04T14:11:24;2.90;;;1.65;;
56039;SDS011;43937;41.366;2.072;2023-06-04T14:13:50;5.35;;;2.63;;
56039;SDS011;43937;41.366;2.072;2023-06-04T14:16:16;4.88;;;2.33;;
56039;SDS011;43937;41.366;2.072;2023-06-04T14:18:41;2.15;;;1.80;;
56039;SDS011;43937;41.366;2.072;2023-06-04T14:21:07;2.22;;;1.67;;
56039;SDS011;43937;41.366;2.072;2023-06-04T14:23:33;3.25;;;2.20;;
56039;SDS011;43937;41.366;2.072;2023-06-04T14:25:58;2.33;;;1.75;;
56039;SDS011;43937;41.366;2.072;2023-06-04T14:28:24;2.63;;;1.88;;
56039;SDS011;43937;41.366;2.072;2023-06-04T14:30:49;3.58;;;1.55;;
56039;SDS011;43937;41.366;2.072;2023-06-04T14:33:15;2.20;;;1.80;;
56039;SDS011;43937;41.366;2.072;2023-06-04T14:35:41;3.15;;;1.60;;
56039;SDS011;43937;41.366;2.072;2023-06-04T14:38:38;2.05;;;1.73;;
56039;SDS011;43937;41.366;2.072;2023-06-04T14:43:11;2.17;;;1.63;;
56039;SDS011;43937;41.366;2.072;2023-06-04T14:45:37;2.75;;;1.73;;
56039;SDS011;43937;41.366;2.072;2023-06-04T14:48:05;3.25;;;2.10;;
56039;SDS011;43937;41.366;2.072;2023-06-04T14:50:31;1.40;;;1.30;;
56039;SDS011;43937;41.366;2.072;2023-06-04T14:52:56;3.15;;;1.60;;
56039;SDS011;43937;41.366;2.072;2023-06-04T14:55:24;1.98;;;1.52;;
56039;SDS011;43937;41.366;2.072;2023-06-04T14:57:50;1.55;;;1.45;;
56039;SDS011;43937;41.366;2.072;2023-06-04T15:00:16;1.95;;;1.65;;
56039;SDS011;43937;41.366;2.072;2023-06-04T15:02:41;4.28;;;1.60;;
56039;SDS011;43937;41.366;2.072;2023-06-04T15:05:07;1.88;;;1.25;;
56039;SDS011;43937;41.366;2.072;2023-06-04T15:07:33;4.05;;;1.60;;
56039;SDS011;43937;41.366;2.072;2023-06-04T15:09:58;2.78;;;1.25;;